Time;durP1;ratioP1;P1;durP2;ratioP2;P2;SDS_P1;SDS_P2;PMS_P1;PMS_P2;Temp;Humidity;BMP_temperature;BMP_pressure;BME280_temperature;BME280_humidity;BME280_pressure;Samples;Min_cycle;Max_cycle;Signal;HPM_P1;HPM_P2
2022/07/16 00:02:40;;;;;;;9.07;3.93;;;21.30;51.10;;;;;;5071807;28;20210;-93
2022/07/16 00:05:11;;;;;;;11.03;5.13;;;21.30;51.20;;;;;;5069238;28;20251;-93
2022/07/16 00:07:38;;;;;;;11.87;4.60;;;21.20;51.10;;;;;;5060645;28;20294;-92
2022/07/16 00:10:06;;;;;;;13.73;5.73;;;21.20;51.30;;;;;;5051858;28;20204;-93
2022/07/16 00:12:33;;;;;;;12.63;5.40;;;21.20;51.40;;;;;;5069875;28;20211;-93
2022/07/16 00:15:02;;;;;;;11.37;5.03;;;21.20;51.10;;;;;;5069353;28;20210;-93
2022/07/16 00:17:30;;;;;;;11.17;5.23;;;21.20;51.40;;;;;;5069977;28;20233;-94
2022/07/16 00:19:57;;;;;;;10.37;4.90;;;21.20;51.30;;;;;;5066539;28;20318;-93
2022/07/16 00:22:49;;;;;;;13.50;5.53;;;21.20;51.60;;;;;;5065705;28;20200;-93
2022/07/16 00:25:16;;;;;;;14.77;5.53;;;21.10;51.50;;;;;;5067076;28;20687;-92
2022/07/16 00:27:44;;;;;;;12.60;5.33;;;21.20;51.40;;;;;;5061978;28;20700;-93
2022/07/16 00:30:12;;;;;;;10.80;5.23;;;21.10;51.40;;;;;;5080147;28;20230;-92
2022/07/16 00:32:39;;;;;;;12.70;5.83;;;21.10;52.20;;;;;;5077804;28;20204;-94
2022/07/16 00:35:10;;;;;;;9.93;5.60;;;21.10;51.70;;;;;;5080441;28;20241;-93
2022/07/16 00:37:39;;;;;;;9.07;5.53;;;21.10;51.80;;;;;;5084818;28;20199;-94
2022/07/16 00:40:07;;;;;;;12.20;6.03;;;21.10;51.90;;;;;;5071085;28;20213;-95
2022/07/16 00:42:35;;;;;;;9.27;5.27;;;21.10;51.70;;;;;;5070698;28;20272;-93
2022/07/16 00:45:04;;;;;;;8.43;5.00;;;21.10;51.90;;;;;;5069859;28;20321;-92
2022/07/16 00:47:32;;;;;;;9.73;5.40;;;21.00;51.70;;;;;;5069923;28;20201;-93
2022/07/16 00:50:00;;;;;;;9.57;5.47;;;21.10;52.00;;;;;;5070538;28;20249;-93
2022/07/16 00:52:29;;;;;;;8.77;5.17;;;21.00;52.00;;;;;;5070213;28;20222;-92
2022/07/16 00:54:57;;;;;;;12.63;5.70;;;21.00;51.90;;;;;;5079431;28;20219;-91
2022/07/16 00:57:24;;;;;;;9.60;5.43;;;21.00;52.00;;;;;;5067023;28;20229;-94
2022/07/16 00:59:51;;;;;;;13.20;6.27;;;21.00;52.00;;;;;;5054080;28;20208;-93
2022/07/16 01:02:19;;;;;;;11.10;5.57;;;21.00;52.00;;;;;;5064323;28;20215;-93
2022/07/16 01:04:48;;;;;;;12.30;5.93;;;21.00;51.80;;;;;;5073348;28;20231;-93
2022/07/16 01:07:17;;;;;;;10.83;5.40;;;20.90;51.90;;;;;;5072261;28;20200;-92
2022/07/16 01:09:48;;;;;;;10.83;5.47;;;20.90;51.90;;;;;;5069445;28;20613;-92
2022/07/16 01:12:16;;;;;;;8.90;4.60;;;20.90;52.50;;;;;;5070173;28;20713;-93
2022/07/16 01:14:56;;;;;;;13.20;5.70;;;20.90;52.00;;;;;;5056950;28;20632;-93
2022/07/16 01:17:23;;;;;;;15.43;5.87;;;20.90;52.70;;;;;;5057060;28;20207;-94
2022/07/16 01:19:50;;;;;;;10.63;5.03;;;20.90;52.10;;;;;;5063976;28;20200;-93
2022/07/16 01:22:24;;;;;;;12.83;5.93;;;20.80;51.80;;;;;;5067460;28;20215;-94
2022/07/16 01:24:54;;;;;;;10.70;4.73;;;20.80;52.40;;;;;;5073177;28;20229;-92
2022/07/16 01:27:22;;;;;;;12.30;5.23;;;20.80;52.20;;;;;;5069258;28;20227;-93
2022/07/16 01:32:53;;;;;;;9.67;4.70;;;20.80;51.80;;;;;;5125445;22;20288;-93
2022/07/16 01:35:20;;;;;;;11.43;4.90;;;20.80;51.80;;;;;;5125321;27;20208;-92
2022/07/16 01:37:48;;;;;;;11.60;5.03;;;20.80;51.90;;;;;;5143721;22;20536;-93
2022/07/16 01:40:19;;;;;;;9.20;4.07;;;20.70;52.00;;;;;;5092389;28;20245;-92
2022/07/16 01:42:46;;;;;;;12.07;4.60;;;20.70;52.20;;;;;;5091905;28;20547;-93
2022/07/16 01:45:14;;;;;;;12.67;4.93;;;20.70;52.40;;;;;;5090945;28;20226;-92
2022/07/16 01:47:41;;;;;;;10.83;5.03;;;20.70;52.60;;;;;;5093066;28;20205;-93
2022/07/16 01:50:08;;;;;;;9.40;4.17;;;20.60;52.70;;;;;;5091105;28;20264;-91
2022/07/16 01:52:37;;;;;;;11.23;4.10;;;20.60;52.60;;;;;;5091499;28;20199;-93
2022/07/16 01:55:05;;;;;;;11.50;4.77;;;20.60;53.10;;;;;;5091645;28;20595;-94
2022/07/16 01:57:34;;;;;;;9.57;4.10;;;20.60;52.60;;;;;;5089667;28;20202;-94
2022/07/16 02:00:02;;;;;;;11.13;4.73;;;20.60;53.00;;;;;;5091571;28;20218;-93
2022/07/16 02:02:29;;;;;;;10.60;4.60;;;20.60;53.10;;;;;;5090523;28;20210;-94
2022/07/16 02:04:57;;;;;;;8.03;3.70;;;20.50;53.00;;;;;;5090745;28;20221;-93
2022/07/16 02:07:24;;;;;;;11.50;4.93;;;20.60;53.20;;;;;;5092413;28;20294;-93
2022/07/16 02:09:52;;;;;;;11.10;4.60;;;20.50;53.10;;;;;;5092909;28;20707;-93
2022/07/16 02:12:21;;;;;;;17.00;5.83;;;20.50;53.30;;;;;;5094496;28;20206;-94
2022/07/16 02:14:51;;;;;;;10.53;4.50;;;20.50;53.30;;;;;;5097163;28;20591;-92
2022/07/16 02:17:18;;;;;;;7.00;3.43;;;20.50;53.60;;;;;;5098169;28;20199;-94
2022/07/16 02:19:51;;;;;;;8.10;3.80;;;20.50;53.50;;;;;;5094595;28;20209;-92
2022/07/16 02:22:18;;;;;;;17.73;6.20;;;20.50;54.00;;;;;;5092550;28;20206;-92
2022/07/16 02:24:45;;;;;;;8.37;3.67;;;20.50;53.80;;;;;;5092865;28;20286;-92
2022/07/16 02:27:28;;;;;;;12.93;3.87;;;20.50;53.80;;;;;;5091519;28;20253;-92
2022/07/16 02:29:59;;;;;;;13.43;4.87;;;20.50;54.50;;;;;;5092706;28;20238;-93
2022/07/16 02:32:27;;;;;;;13.13;5.10;;;20.50;53.90;;;;;;5113382;28;20314;-93
2022/07/16 02:35:00;;;;;;;7.60;3.60;;;20.50;53.80;;;;;;5106413;28;20673;-93
2022/07/16 02:37:28;;;;;;;10.17;3.87;;;20.50;54.10;;;;;;5099865;28;20206;-93
2022/07/16 02:40:00;;;;;;;8.53;3.63;;;20.40;54.00;;;;;;5093132;28;20211;-92
2022/07/16 02:42:28;;;;;;;11.07;4.37;;;20.40;53.90;;;;;;5091888;28;20210;-92
2022/07/16 02:44:59;;;;;;;10.93;4.17;;;20.40;54.00;;;;;;5092459;28;20970;-91
2022/07/16 02:47:27;;;;;;;9.43;3.93;;;20.40;54.70;;;;;;5092922;28;20209;-92
2022/07/16 02:50:00;;;;;;;9.30;4.10;;;20.40;54.00;;;;;;5093166;28;20206;-93
2022/07/16 02:52:29;;;;;;;10.87;4.67;;;20.40;54.20;;;;;;5097012;28;20222;-92
2022/07/16 02:54:56;;;;;;;5.37;3.37;;;20.40;54.10;;;;;;5097052;28;20712;-93
2022/07/16 03:00:46;;;;;;;9.27;3.73;;;20.30;54.60;;;;;;5088215;28;20272;-94
2022/07/16 03:03:15;;;;;;;14.43;5.03;;;20.30;54.90;;;;;;5089774;28;20231;-92
2022/07/16 03:06:12;;;;;;;10.97;4.23;;;20.30;54.90;;;;;;5080672;28;20241;-93
2022/07/16 03:08:39;;;;;;;11.77;4.67;;;20.30;55.30;;;;;;5085270;28;20317;-92
2022/07/16 03:11:07;;;;;;;11.53;4.30;;;20.20;54.90;;;;;;5089955;28;20729;-92
2022/07/16 03:13:34;;;;;;;13.10;4.83;;;20.20;55.30;;;;;;5075267;28;20286;-92
2022/07/16 03:16:05;;;;;;;10.17;4.50;;;20.10;55.30;;;;;;5073749;28;20280;-92
2022/07/16 03:18:32;;;;;;;10.23;4.27;;;20.10;55.70;;;;;;5090916;28;20255;-92
2022/07/16 03:20:59;;;;;;;11.43;4.07;;;20.10;55.70;;;;;;5091180;28;20206;-92
2022/07/16 03:23:27;;;;;;;10.87;4.53;;;20.10;55.70;;;;;;5090843;28;20206;-92
2022/07/16 03:25:54;;;;;;;12.37;4.03;;;20.10;55.80;;;;;;5090125;28;20283;-91
2022/07/16 03:28:25;;;;;;;10.47;4.40;;;20.10;55.80;;;;;;5090085;28;20202;-91
2022/07/16 03:30:52;;;;;;;10.73;4.10;;;20.10;55.90;;;;;;5090218;28;20206;-92
2022/07/16 03:33:21;;;;;;;20.63;6.33;;;20.10;56.10;;;;;;5090215;28;20209;-93
2022/07/16 03:35:48;;;;;;;8.73;3.80;;;20.10;56.40;;;;;;5117649;22;20227;-93
2022/07/16 03:41:16;;;;;;;17.83;5.83;;;20.10;56.70;;;;;;5059096;28;20211;-91
2022/07/16 03:43:43;;;;;;;13.90;5.00;;;20.10;56.40;;;;;;5069082;28;20207;-92
2022/07/16 03:46:13;;;;;;;10.67;4.13;;;20.10;56.50;;;;;;5075907;28;20292;-91
2022/07/16 03:49:20;;;;;;;14.07;4.63;;;20.10;56.80;;;;;;5087999;28;20635;-93
2022/07/16 03:51:50;;;;;;;12.13;4.53;;;20.10;57.60;;;;;;5089792;28;20274;-91
2022/07/16 03:54:18;;;;;;;9.93;3.87;;;20.00;57.00;;;;;;5088027;28;20213;-92
2022/07/16 03:56:48;;;;;;;13.43;4.80;;;20.10;57.20;;;;;;5078282;28;20695;-91
2022/07/16 03:59:15;;;;;;;7.73;3.43;;;20.10;57.60;;;;;;5090378;28;20221;-91
2022/07/16 04:01:43;;;;;;;12.07;4.23;;;20.10;57.50;;;;;;5079922;28;20966;-92
2022/07/16 04:04:24;;;;;;;9.50;3.97;;;20.10;57.90;;;;;;5069596;28;20218;-91
2022/07/16 04:06:55;;;;;;;14.43;5.30;;;20.20;58.70;;;;;;5072251;28;20296;-93
2022/07/16 04:09:22;;;;;;;11.27;3.97;;;20.20;58.30;;;;;;5090234;28;20741;-92
2022/07/16 04:11:56;;;;;;;10.87;4.00;;;20.20;58.00;;;;;;5076065;28;20700;-93
2022/07/16 04:14:23;;;;;;;10.47;3.83;;;20.30;58.20;;;;;;5089354;28;20252;-93
2022/07/16 04:16:51;;;;;;;15.03;5.10;;;20.30;58.20;;;;;;5086647;28;20203;-92
2022/07/16 04:19:41;;;;;;;17.93;5.37;;;20.30;58.20;;;;;;5067724;28;20204;-93
2022/07/16 04:22:08;;;;;;;9.20;3.53;;;20.30;59.40;;;;;;5068697;28;20654;-93
2022/07/16 04:24:54;;;;;;;9.20;3.60;;;20.40;58.50;;;;;;5089806;28;20190;-92
2022/07/16 04:27:22;;;;;;;7.40;2.57;;;20.40;59.50;;;;;;5070536;28;20260;-93
2022/07/16 04:29:50;;;;;;;11.17;3.80;;;20.40;58.70;;;;;;5089520;28;20225;-92
2022/07/16 04:32:17;;;;;;;13.37;4.17;;;20.50;58.90;;;;;;5102088;28;20209;-92
2022/07/16 04:34:46;;;;;;;8.07;3.13;;;20.50;58.90;;;;;;5176305;22;20244;-92
2022/07/16 04:37:28;;;;;;;10.53;3.53;;;20.60;59.40;;;;;;5102720;28;20339;-92
2022/07/16 04:39:56;;;;;;;9.83;3.10;;;20.60;60.10;;;;;;5098012;28;20211;-93
2022/07/16 04:42:26;;;;;;;6.13;2.17;;;20.60;59.30;;;;;;5095440;28;20578;-92
2022/07/16 04:44:54;;;;;;;6.30;2.40;;;20.60;59.90;;;;;;5091325;28;20203;-91
2022/07/16 04:47:33;;;;;;;7.70;2.33;;;20.70;59.80;;;;;;5091782;28;20256;-94
2022/07/16 04:50:03;;;;;;;3.77;1.67;;;20.70;61.10;;;;;;5091623;28;20203;-94
2022/07/16 04:52:31;;;;;;;9.47;2.80;;;20.80;60.70;;;;;;5090095;28;20698;-93
2022/07/16 04:58:30;;;;;;;4.87;1.80;;;20.90;60.90;;;;;;5070340;28;20297;-92
2022/07/16 05:00:57;;;;;;;6.27;2.13;;;20.90;60.90;;;;;;5070106;28;20221;-92
2022/07/16 05:03:59;;;;;;;11.13;2.73;;;21.00;60.90;;;;;;5075173;28;20567;-92
2022/07/16 05:06:34;;;;;;;6.27;2.30;;;21.10;62.50;;;;;;5083935;28;20261;-93
2022/07/16 05:09:02;;;;;;;10.30;3.07;;;21.10;62.00;;;;;;5104978;28;20244;-94
2022/07/16 05:11:29;;;;;;;8.17;2.80;;;21.20;61.20;;;;;;5101833;28;20236;-92
2022/07/16 05:13:58;;;;;;;7.67;2.80;;;21.20;61.30;;;;;;5100319;28;20221;-93
2022/07/16 05:16:25;;;;;;;11.07;3.57;;;21.20;61.30;;;;;;5108058;28;20182;-89
2022/07/16 05:18:53;;;;;;;4.23;1.77;;;21.30;61.40;;;;;;5106601;28;20711;-91
2022/07/16 05:21:21;;;;;;;9.00;3.40;;;21.30;61.10;;;;;;5098792;28;20202;-92
2022/07/16 05:23:51;;;;;;;10.07;2.80;;;21.40;61.10;;;;;;5099120;28;20721;-91
2022/07/16 05:26:18;;;;;;;8.63;2.83;;;21.40;61.40;;;;;;5097065;28;20226;-90
2022/07/16 05:28:46;;;;;;;8.30;3.30;;;21.40;61.00;;;;;;5099145;28;20695;-92
2022/07/16 05:31:13;;;;;;;10.57;3.77;;;21.50;61.10;;;;;;5100625;28;20207;-92
2022/07/16 05:33:40;;;;;;;10.40;3.70;;;21.50;61.20;;;;;;5096386;28;20207;-92
2022/07/16 05:36:09;;;;;;;10.13;3.23;;;21.60;61.10;;;;;;5094676;28;20619;-91
2022/07/16 05:38:36;;;;;;;10.53;3.40;;;21.60;61.30;;;;;;5095472;28;20194;-90
2022/07/16 05:41:05;;;;;;;7.10;2.90;;;21.60;61.00;;;;;;5092120;28;20239;-93
2022/07/16 05:43:33;;;;;;;12.97;4.10;;;21.60;61.90;;;;;;5091988;28;20191;-92
2022/07/16 05:46:01;;;;;;;10.57;3.10;;;21.70;61.00;;;;;;5084422;28;20219;-91
2022/07/16 05:48:29;;;;;;;8.57;3.13;;;21.70;61.00;;;;;;5092630;28;20211;-92
2022/07/16 05:50:57;;;;;;;12.80;3.83;;;21.70;61.00;;;;;;5092482;28;20286;-92
2022/07/16 05:53:24;;;;;;;11.30;3.03;;;21.80;61.10;;;;;;5088314;28;20203;-91
2022/07/16 05:55:51;;;;;;;9.37;3.43;;;21.80;61.00;;;;;;5092190;28;20199;-93
2022/07/16 05:58:22;;;;;;;12.60;3.97;;;21.80;61.00;;;;;;5096069;28;20259;-95
2022/07/16 06:00:49;;;;;;;8.63;3.17;;;21.90;61.00;;;;;;5091613;28;20251;-92
2022/07/16 06:03:16;;;;;;;10.53;3.93;;;21.90;61.00;;;;;;5092105;28;20200;-93
2022/07/16 06:05:45;;;;;;;9.07;3.17;;;21.90;61.00;;;;;;5093698;28;20229;-91
2022/07/16 06:08:13;;;;;;;8.30;2.80;;;21.90;61.10;;;;;;5090469;28;20642;-96
2022/07/16 06:10:40;;;;;;;10.17;3.27;;;22.00;61.30;;;;;;5089252;28;20658;-92
2022/07/16 06:13:08;;;;;;;12.97;4.10;;;22.00;61.30;;;;;;5090412;28;20202;-92
2022/07/16 06:15:38;;;;;;;7.77;3.03;;;22.00;61.50;;;;;;5091217;28;20203;-93
2022/07/16 06:18:07;;;;;;;5.73;2.10;;;22.10;61.40;;;;;;5090863;28;20200;-92
2022/07/16 06:20:35;;;;;;;11.33;3.90;;;22.10;61.40;;;;;;5088036;28;20219;-91
2022/07/16 06:23:03;;;;;;;9.87;3.23;;;22.10;61.40;;;;;;5071328;28;20785;-91
2022/07/16 06:25:32;;;;;;;11.00;3.93;;;22.20;61.40;;;;;;5078195;28;20326;-91
2022/07/16 06:28:00;;;;;;;8.43;3.00;;;22.20;61.50;;;;;;5084920;28;20199;-91
2022/07/16 06:30:29;;;;;;;8.47;2.77;;;22.20;61.20;;;;;;5091192;28;20258;-94
2022/07/16 06:33:01;;;;;;;10.50;3.57;;;22.30;61.40;;;;;;5089564;28;20746;-93
2022/07/16 06:35:28;;;;;;;4.77;2.10;;;22.30;61.70;;;;;;5091081;28;20218;-94
2022/07/16 06:37:56;;;;;;;9.73;3.60;;;22.30;61.30;;;;;;5092292;28;20191;-92
2022/07/16 06:40:24;;;;;;;8.93;3.13;;;22.40;61.40;;;;;;5092137;28;20215;-92
2022/07/16 06:42:51;;;;;;;10.63;3.37;;;22.40;61.40;;;;;;5091306;28;20207;-92
2022/07/16 06:45:19;;;;;;;12.10;3.80;;;22.50;61.40;;;;;;5090237;28;20213;-94
2022/07/16 06:47:46;;;;;;;9.53;3.17;;;22.50;61.20;;;;;;5078925;28;20199;-91
2022/07/16 06:50:16;;;;;;;8.40;2.50;;;22.50;61.10;;;;;;5091271;28;20306;-93
2022/07/16 06:52:44;;;;;;;8.70;3.00;;;22.60;61.90;;;;;;5091714;28;20252;-92
2022/07/16 06:55:12;;;;;;;6.53;3.03;;;22.60;61.40;;;;;;5091860;28;20199;-92
2022/07/16 06:57:41;;;;;;;6.80;2.57;;;22.70;61.50;;;;;;5091527;28;20206;-93
2022/07/16 07:00:12;;;;;;;9.83;3.50;;;22.70;61.20;;;;;;5091790;28;20207;-92
2022/07/16 07:05:05;;;;;;;9.33;3.37;;;22.70;61.00;;;;;;5110199;22;20275;-91
2022/07/16 07:07:38;;;;;;;9.03;3.40;;;22.80;61.20;;;;;;5110924;28;20235;-91
2022/07/16 07:10:08;;;;;;;10.50;3.53;;;22.70;61.40;;;;;;5092470;28;20293;-91
2022/07/16 07:12:36;;;;;;;6.53;2.47;;;22.80;61.10;;;;;;5110565;28;20303;-92
2022/07/16 07:15:06;;;;;;;9.97;3.10;;;22.80;61.10;;;;;;5111913;28;20225;-94
2022/07/16 07:17:33;;;;;;;11.03;3.53;;;22.80;60.90;;;;;;5107808;28;20243;-91
2022/07/16 07:20:01;;;;;;;6.27;2.23;;;22.90;60.60;;;;;;5109874;28;20212;-93
2022/07/16 07:22:28;;;;;;;8.10;3.00;;;22.90;60.40;;;;;;5111450;28;20665;-92
2022/07/16 07:24:57;;;;;;;6.50;2.33;;;22.90;60.40;;;;;;5108979;28;20999;-92
2022/07/16 07:27:24;;;;;;;10.93;3.73;;;22.90;60.20;;;;;;5121579;28;20234;-94
2022/07/16 07:29:53;;;;;;;11.20;3.17;;;23.00;60.30;;;;;;5119217;28;20223;-92
2022/07/16 07:32:20;;;;;;;8.37;2.43;;;23.00;60.30;;;;;;5111762;28;20203;-94
2022/07/16 07:34:47;;;;;;;9.67;3.20;;;23.10;60.40;;;;;;5110706;28;20284;-93
2022/07/16 07:37:17;;;;;;;11.70;3.13;;;23.10;60.40;;;;;;5120508;28;20186;-92
2022/07/16 07:39:45;;;;;;;7.60;2.80;;;23.10;60.40;;;;;;5121434;28;20199;-90
2022/07/16 07:42:22;;;;;;;5.70;1.87;;;23.20;60.40;;;;;;5114929;28;20216;-93
2022/07/16 07:44:50;;;;;;;7.60;2.63;;;23.20;60.80;;;;;;5113439;28;20667;-90
2022/07/16 07:47:17;;;;;;;7.90;2.43;;;23.20;60.20;;;;;;5109226;28;20261;-92
2022/07/16 07:49:47;;;;;;;13.03;3.73;;;23.30;60.20;;;;;;5108722;28;20229;-94
2022/07/16 07:52:14;;;;;;;8.07;2.90;;;23.30;60.10;;;;;;5110212;28;20200;-92
2022/07/16 07:54:44;;;;;;;7.07;2.60;;;23.30;59.60;;;;;;5124662;28;20702;-94
2022/07/16 07:57:11;;;;;;;6.23;2.53;;;23.40;59.60;;;;;;5125723;28;20214;-92
2022/07/16 07:59:42;;;;;;;9.33;2.77;;;23.50;59.50;;;;;;5112543;28;20228;-94
2022/07/16 08:02:09;;;;;;;9.50;3.40;;;23.50;59.20;;;;;;5090303;28;20654;-92
2022/07/16 08:04:36;;;;;;;8.77;3.07;;;23.60;59.30;;;;;;5098683;28;20213;-91
2022/07/16 08:07:03;;;;;;;6.20;2.33;;;23.60;59.10;;;;;;5108728;28;20723;-94
2022/07/16 08:09:30;;;;;;;8.20;2.83;;;23.60;58.80;;;;;;5113001;28;21063;-93
2022/07/16 08:11:57;;;;;;;6.37;2.50;;;23.60;58.60;;;;;;5109427;28;20192;-94
2022/07/16 08:14:27;;;;;;;8.43;2.10;;;23.70;58.60;;;;;;5112652;28;20205;-93
2022/07/16 08:16:57;;;;;;;10.00;3.43;;;23.70;58.50;;;;;;5109705;28;20200;-90
2022/07/16 08:19:24;;;;;;;8.53;3.07;;;23.70;58.00;;;;;;5109474;28;20260;-92
2022/07/16 08:21:52;;;;;;;5.00;2.10;;;23.70;58.00;;;;;;5110177;28;20579;-90
2022/07/16 08:27:04;;;;;;;8.73;3.07;;;23.80;57.90;;;;;;5110504;28;20232;-92
2022/07/16 08:29:31;;;;;;;7.93;2.77;;;23.80;57.90;;;;;;5109747;28;20217;-92
2022/07/16 08:32:00;;;;;;;11.80;3.90;;;23.90;57.90;;;;;;5105520;28;20196;-90
2022/07/16 08:34:29;;;;;;;11.83;4.23;;;23.90;58.00;;;;;;5109535;28;20192;-92
2022/07/16 08:36:56;;;;;;;15.73;4.23;;;24.00;58.00;;;;;;5109391;28;20210;-92
2022/07/16 08:39:24;;;;;;;9.13;3.37;;;24.00;57.80;;;;;;5103032;28;20227;-90
2022/07/16 08:41:55;;;;;;;10.90;3.43;;;24.10;57.80;;;;;;5097173;28;20194;-92
2022/07/16 08:44:22;;;;;;;5.70;2.20;;;24.10;57.90;;;;;;5100880;28;20210;-91
2022/07/16 08:46:51;;;;;;;7.53;3.10;;;24.20;58.00;;;;;;5096876;28;20241;-90
2022/07/16 08:49:21;;;;;;;8.60;3.30;;;24.30;57.90;;;;;;5098421;28;20250;-90
2022/07/16 08:54:30;;;;;;;7.57;2.70;;;24.50;57.50;;;;;;5160088;22;20243;-93
2022/07/16 08:59:44;;;;;;;10.17;4.03;;;24.80;57.20;;;;;;5046944;28;20241;-90
2022/07/16 09:02:13;;;;;;;10.17;3.27;;;24.90;57.10;;;;;;5070611;28;20205;-91
2022/07/16 09:04:43;;;;;;;9.20;3.20;;;25.00;57.10;;;;;;5058034;28;20290;-92
2022/07/16 09:07:13;;;;;;;7.37;3.10;;;25.20;56.80;;;;;;5055406;28;20227;-92
2022/07/16 09:09:41;;;;;;;7.53;2.80;;;25.30;55.80;;;;;;5057212;28;20710;-94
2022/07/16 09:12:08;;;;;;;8.23;3.03;;;25.40;55.90;;;;;;5056402;28;20951;-91
2022/07/16 09:14:56;;;;;;;9.87;3.80;;;25.60;55.70;;;;;;5055915;28;20193;-91
2022/07/16 09:17:26;;;;;;;8.07;2.93;;;25.70;55.70;;;;;;5049601;28;20352;-93
2022/07/16 09:19:57;;;;;;;8.37;3.10;;;25.90;55.30;;;;;;5056078;28;20617;-95
2022/07/16 09:22:25;;;;;;;9.87;3.47;;;26.10;55.30;;;;;;5057597;28;20192;-90
2022/07/16 09:24:53;;;;;;;5.97;2.40;;;26.20;54.50;;;;;;5056957;28;20196;-91
2022/07/16 09:27:24;;;;;;;14.17;5.10;;;26.40;54.10;;;;;;5058095;28;20219;-92
2022/07/16 09:29:53;;;;;;;9.23;3.53;;;26.50;54.10;;;;;;5054781;28;20193;-92
2022/07/16 09:32:32;;;;;;;10.63;3.90;;;26.70;54.30;;;;;;5062846;28;20297;-93
2022/07/16 09:35:05;;;;;;;8.47;2.93;;;26.80;53.00;;;;;;5068188;28;20570;-89
2022/07/16 09:37:49;;;;;;;11.17;3.83;;;26.90;53.00;;;;;;5068330;28;20202;-90
2022/07/16 09:40:30;;;;;;;10.10;4.07;;;27.10;53.40;;;;;;5066070;28;20733;-92
2022/07/16 09:43:00;;;;;;;6.40;2.90;;;27.30;53.00;;;;;;5064194;28;20222;-91
2022/07/16 09:45:27;;;;;;;12.20;4.53;;;27.50;53.70;;;;;;5070507;28;20671;-92
2022/07/16 09:47:55;;;;;;;7.00;2.90;;;27.60;53.30;;;;;;5070877;28;20707;-92
2022/07/16 09:50:24;;;;;;;6.33;2.83;;;27.80;53.10;;;;;;5070068;28;20227;-90
2022/07/16 09:52:51;;;;;;;11.20;4.40;;;28.00;52.50;;;;;;5069405;28;20848;-89
2022/07/16 09:55:18;;;;;;;8.80;3.17;;;28.10;52.60;;;;;;5070710;28;20207;-90
2022/07/16 09:57:47;;;;;;;6.53;2.90;;;28.30;52.70;;;;;;5065970;28;20214;-90
2022/07/16 10:00:16;;;;;;;4.90;2.30;;;28.40;51.60;;;;;;5069951;28;20296;-90
2022/07/16 10:02:43;;;;;;;7.33;2.87;;;28.50;51.60;;;;;;5069916;28;20295;-92
2022/07/16 10:05:11;;;;;;;9.20;3.73;;;28.70;51.90;;;;;;5056843;28;20199;-90
2022/07/16 10:07:39;;;;;;;10.47;3.53;;;28.80;51.20;;;;;;5069658;28;20211;-91
2022/07/16 10:10:07;;;;;;;8.97;3.70;;;29.00;50.90;;;;;;5070141;28;20192;-89
2022/07/16 10:12:38;;;;;;;7.30;3.07;;;29.10;50.60;;;;;;5070353;28;20241;-89
2022/07/16 10:15:06;;;;;;;7.37;2.87;;;29.20;50.30;;;;;;5069640;28;20626;-90
2022/07/16 10:17:41;;;;;;;7.67;2.80;;;29.30;50.00;;;;;;5072260;28;20215;-89
2022/07/16 10:20:12;;;;;;;6.27;2.40;;;29.40;49.60;;;;;;5073124;28;20191;-89
2022/07/16 10:23:09;;;;;;;8.60;3.90;;;29.50;49.40;;;;;;5063781;28;20211;-90
2022/07/16 10:25:36;;;;;;;9.50;4.03;;;29.60;48.00;;;;;;5069710;28;20546;-90
2022/07/16 10:28:03;;;;;;;8.37;3.20;;;29.70;49.00;;;;;;5069619;28;20288;-90
2022/07/16 10:30:31;;;;;;;4.60;2.20;;;29.80;48.90;;;;;;5069876;28;20200;-89
2022/07/16 10:33:13;;;;;;;8.00;3.30;;;29.90;48.70;;;;;;5070612;28;20257;-89
2022/07/16 10:35:47;;;;;;;6.07;2.73;;;29.90;47.20;;;;;;5075609;28;20199;-90
2022/07/16 10:38:20;;;;;;;6.57;2.70;;;30.00;48.00;;;;;;5074188;28;20202;-89
2022/07/16 10:41:05;;;;;;;6.97;2.80;;;30.00;47.70;;;;;;5070632;28;20207;-90
2022/07/16 10:43:41;;;;;;;8.23;3.57;;;30.10;47.90;;;;;;5068769;28;20212;-88
2022/07/16 10:46:10;;;;;;;7.00;3.00;;;30.10;46.80;;;;;;5069890;28;20272;-91
2022/07/16 10:49:14;;;;;;;6.57;2.73;;;30.20;47.50;;;;;;5071371;28;20235;-88
2022/07/16 10:51:56;;;;;;;7.63;2.87;;;30.30;46.00;;;;;;5072765;28;20326;-91
2022/07/16 10:54:24;;;;;;;7.80;3.17;;;30.30;46.20;;;;;;5072283;28;20636;-90
2022/07/16 10:56:52;;;;;;;6.90;2.73;;;30.30;46.90;;;;;;5070013;28;20298;-89
2022/07/16 10:59:21;;;;;;;5.83;2.77;;;30.30;46.70;;;;;;5069137;28;20239;-89
2022/07/16 11:01:51;;;;;;;8.40;3.22;;;30.40;46.40;;;;;;5069307;28;20253;-90
2022/07/16 11:04:27;;;;;;;12.13;3.90;;;30.40;46.30;;;;;;5062664;28;20231;-90
2022/07/16 11:06:54;;;;;;;6.57;2.87;;;30.50;45.10;;;;;;5068277;28;20218;-89
2022/07/16 11:09:31;;;;;;;6.77;2.90;;;30.50;46.00;;;;;;5068353;28;20593;-90
2022/07/16 11:12:10;;;;;;;6.23;2.57;;;30.60;45.70;;;;;;5063936;28;20199;-88
2022/07/16 11:14:38;;;;;;;8.60;3.73;;;30.70;45.00;;;;;;5068319;28;20207;-90
2022/07/16 11:17:05;;;;;;;8.27;2.77;;;30.70;45.70;;;;;;5068360;28;20200;-90
2022/07/16 11:20:05;;;;;;;8.50;3.80;;;30.70;45.70;;;;;;5069198;28;20203;-93
2022/07/16 11:22:34;;;;;;;10.50;4.25;;;30.80;45.10;;;;;;5052066;28;20208;-90
2022/07/16 11:25:05;;;;;;;6.23;2.77;;;30.80;45.00;;;;;;5068265;28;20207;-90
2022/07/16 11:27:34;;;;;;;8.35;3.22;;;30.90;45.00;;;;;;5062976;28;20307;-89
2022/07/16 11:30:05;;;;;;;7.07;2.87;;;30.90;44.80;;;;;;5065573;28;20223;-89
2022/07/16 11:32:33;;;;;;;6.15;2.90;;;30.90;44.40;;;;;;5068155;28;20211;-90
2022/07/16 11:35:05;;;;;;;6.35;2.95;;;30.90;44.70;;;;;;5066374;28;20231;-89
2022/07/16 11:37:48;;;;;;;7.07;3.28;;;31.00;44.30;;;;;;5068482;28;20205;-89
2022/07/16 11:40:16;;;;;;;8.10;3.13;;;31.10;44.00;;;;;;5066206;28;20622;-91
2022/07/16 11:42:43;;;;;;;7.20;3.20;;;31.10;43.80;;;;;;5050925;28;20211;-90
2022/07/16 11:45:12;;;;;;;6.07;2.67;;;31.10;44.10;;;;;;5056319;28;20256;-89
2022/07/16 11:47:39;;;;;;;7.57;3.22;;;31.20;44.30;;;;;;5050752;28;20314;-90
2022/07/16 11:50:09;;;;;;;5.78;2.75;;;31.30;44.20;;;;;;5048473;28;20575;-90
2022/07/16 11:52:36;;;;;;;6.20;3.07;;;31.30;43.50;;;;;;5048954;28;20290;-90
2022/07/16 11:55:11;;;;;;;7.72;3.28;;;31.30;43.80;;;;;;5068116;28;20207;-89
2022/07/16 11:57:49;;;;;;;6.57;2.97;;;31.40;42.80;;;;;;5064373;28;20612;-90
2022/07/16 12:00:17;;;;;;;6.97;3.22;;;31.50;42.00;;;;;;5066118;28;20204;-91
2022/07/16 12:02:46;;;;;;;5.93;2.83;;;31.50;43.00;;;;;;5064511;28;20257;-89
2022/07/16 12:05:14;;;;;;;5.25;2.35;;;31.50;42.70;;;;;;5068020;28;20206;-90
2022/07/16 12:07:45;;;;;;;7.93;3.20;;;31.60;42.30;;;;;;5056048;28;20284;-88
2022/07/16 12:10:12;;;;;;;7.45;2.53;;;31.60;41.90;;;;;;5067568;28;20208;-89
2022/07/16 12:12:39;;;;;;;7.68;3.78;;;31.60;42.40;;;;;;5050818;28;20734;-94
2022/07/16 12:15:12;;;;;;;6.68;2.65;;;31.60;42.30;;;;;;5062347;28;20287;-90
2022/07/16 12:17:41;;;;;;;6.55;2.53;;;31.70;42.40;;;;;;5047785;28;20210;-90
2022/07/16 12:20:12;;;;;;;5.47;1.92;;;31.80;42.30;;;;;;5060756;28;20202;-91
2022/07/16 12:23:00;;;;;;;5.50;2.92;;;31.80;41.80;;;;;;5067649;28;20200;-89
2022/07/16 12:25:36;;;;;;;10.20;3.80;;;31.80;41.50;;;;;;5063459;28;20733;-90
2022/07/16 12:28:06;;;;;;;6.78;3.10;;;31.90;41.60;;;;;;5067839;28;20277;-90
2022/07/16 12:30:40;;;;;;;6.80;2.88;;;31.90;41.70;;;;;;5067693;28;20640;-90
2022/07/16 12:33:09;;;;;;;6.07;3.05;;;32.00;41.80;;;;;;5067898;28;20988;-89
2022/07/16 12:35:43;;;;;;;8.07;2.85;;;32.00;41.50;;;;;;5059124;28;20212;-91
2022/07/16 12:38:26;;;;;;;9.30;3.67;;;32.00;40.70;;;;;;5073944;28;20236;-90
2022/07/16 12:40:54;;;;;;;9.43;4.07;;;32.10;41.00;;;;;;5084762;28;20199;-90
2022/07/16 12:43:22;;;;;;;6.13;2.28;;;32.10;41.00;;;;;;5088790;28;20195;-89
2022/07/16 12:45:50;;;;;;;3.13;1.50;;;32.10;41.30;;;;;;5083797;28;20199;-89
2022/07/16 12:48:18;;;;;;;3.45;1.88;;;32.10;40.70;;;;;;5073259;28;20235;-90
2022/07/16 12:50:45;;;;;;;7.28;2.03;;;32.10;40.30;;;;;;5049378;28;20308;-90
2022/07/16 12:53:13;;;;;;;5.97;2.53;;;32.10;40.80;;;;;;5052446;28;20240;-91
2022/07/16 13:01:12;;;;;;;6.75;3.03;;;32.30;40.40;;;;;;5067867;28;20206;-88
2022/07/16 13:03:40;;;;;;;3.53;1.55;;;32.30;39.80;;;;;;5067645;28;20801;-88
2022/07/16 13:06:10;;;;;;;7.10;3.25;;;32.40;40.50;;;;;;5064993;28;20259;-89
2022/07/16 13:08:56;;;;;;;7.60;3.17;;;32.40;40.80;;;;;;5055951;28;20985;-91
2022/07/16 13:11:24;;;;;;;4.95;2.45;;;32.40;39.40;;;;;;5062467;28;20209;-89
2022/07/16 13:13:52;;;;;;;6.25;2.47;;;32.40;40.20;;;;;;5068596;28;20672;-88
2022/07/16 13:16:21;;;;;;;5.65;2.42;;;32.50;39.70;;;;;;5067957;28;20203;-88
2022/07/16 13:18:50;;;;;;;7.88;3.65;;;32.50;39.60;;;;;;5068740;28;20687;-89
2022/07/16 13:21:18;;;;;;;7.60;3.67;;;32.60;39.60;;;;;;5072005;28;20578;-90
2022/07/16 13:23:45;;;;;;;8.20;3.80;;;32.60;39.50;;;;;;5068343;28;20272;-89
2022/07/16 13:26:13;;;;;;;6.50;2.88;;;32.60;39.30;;;;;;5067961;28;20284;-89
2022/07/16 13:28:40;;;;;;;4.47;2.42;;;32.70;39.40;;;;;;5070225;28;20227;-91